createdAt,value
2023-05-14T00:01:36.312Z,11.68
2023-05-14T00:04:03.929Z,11.02
2023-05-14T00:06:30.688Z,10.25
2023-05-14T00:08:57.495Z,11.40
2023-05-14T00:11:24.334Z,11.10
2023-05-14T00:13:51.068Z,10.98
2023-05-14T00:16:17.758Z,12.02
2023-05-14T00:18:44.558Z,11.70
2023-05-14T00:21:11.606Z,10.73
2023-05-14T00:23:38.430Z,11.25
2023-05-14T00:26:05.231Z,10.82
2023-05-14T00:28:31.988Z,11.40
2023-05-14T00:30:58.681Z,12.80
2023-05-14T00:33:25.384Z,12.00
2023-05-14T00:35:52.273Z,12.45
2023-05-14T00:38:19.544Z,12.07
2023-05-14T00:40:51.158Z,14.10
2023-05-14T00:43:19.424Z,13.45
2023-05-14T00:45:46.092Z,14.70
2023-05-14T00:48:13.022Z,15.05
2023-05-14T00:50:39.876Z,13.13
2023-05-14T00:53:10.240Z,12.45
2023-05-14T00:55:38.181Z,13.07
2023-05-14T00:58:08.197Z,13.50
2023-05-14T01:00:35.212Z,14.27
2023-05-14T01:03:03.265Z,14.68
2023-05-14T01:05:47.084Z,13.98
2023-05-14T01:08:22.230Z,15.05
2023-05-14T01:10:53.079Z,13.73
2023-05-14T01:13:21.016Z,14.02
2023-05-14T01:15:47.899Z,13.10
2023-05-14T01:18:16.948Z,16.90
2023-05-14T01:20:44.491Z,13.85
2023-05-14T01:23:11.260Z,14.43
2023-05-14T01:25:37.923Z,14.32
2023-05-14T01:28:33.887Z,15.05
2023-05-14T01:31:14.455Z,13.57
2023-05-14T01:33:41.606Z,13.63
2023-05-14T01:36:08.335Z,12.85
2023-05-14T01:38:35.012Z,14.43
2023-05-14T01:41:01.764Z,14.25
2023-05-14T01:43:28.547Z,16.88
2023-05-14T01:45:55.620Z,15.88
2023-05-14T01:48:22.517Z,15.52
2023-05-14T01:50:49.201Z,15.88
2023-05-14T01:53:15.886Z,14.25
2023-05-14T01:55:42.756Z,15.88
2023-05-14T01:58:09.410Z,15.85
2023-05-14T02:00:36.105Z,18.48
2023-05-14T02:03:02.877Z,18.88
2023-05-14T02:05:29.607Z,18.73
2023-05-14T02:07:56.330Z,19.02
2023-05-14T02:10:23.150Z,18.73
2023-05-14T02:12:50.067Z,19.25
2023-05-14T02:15:16.894Z,18.90
2023-05-14T02:17:43.718Z,18.35
2023-05-14T02:20:11.112Z,17.48
2023-05-14T02:22:38.007Z,17.45
2023-05-14T02:25:05.242Z,16.25
2023-05-14T02:27:31.925Z,19.25
2023-05-14T02:30:00.859Z,16.92
2023-05-14T02:32:28.346Z,17.25
2023-05-14T02:34:58.312Z,15.75
2023-05-14T02:37:25.045Z,15.38
2023-05-14T02:39:52.305Z,15.68
2023-05-14T02:42:19.004Z,15.65
2023-05-14T02:44:45.831Z,15.50
2023-05-14T02:47:12.525Z,14.32
2023-05-14T02:49:40.153Z,14.70
2023-05-14T02:52:07.131Z,17.17
2023-05-14T02:54:33.937Z,18.35
2023-05-14T02:57:00.666Z,16.52
2023-05-14T02:59:27.458Z,15.15
2023-05-14T03:01:54.406Z,17.83
2023-05-14T03:04:21.508Z,16.23
2023-05-14T03:06:48.247Z,15.32
2023-05-14T03:09:14.984Z,15.60
2023-05-14T03:11:41.724Z,16.63
2023-05-14T03:14:08.398Z,18.67
2023-05-14T03:16:35.154Z,15.90
2023-05-14T03:19:01.924Z,16.83
2023-05-14T03:21:28.688Z,17.40
2023-05-14T03:23:55.384Z,17.42
2023-05-14T03:26:22.054Z,18.15
2023-05-14T03:28:48.908Z,17.38
2023-05-14T03:31:15.714Z,18.02
2023-05-14T03:33:42.494Z,17.52
2023-05-14T03:36:09.333Z,18.88
2023-05-14T03:38:36.008Z,18.63
2023-05-14T03:41:02.719Z,19.05
2023-05-14T03:43:29.515Z,17.05
2023-05-14T03:45:56.214Z,18.13
2023-05-14T03:48:23.003Z,18.15
2023-05-14T03:50:49.760Z,19.75
2023-05-14T03:53:16.787Z,18.48
2023-05-14T03:55:43.501Z,19.70
2023-05-14T03:58:14.438Z,19.20
2023-05-14T04:00:44.377Z,20.63
2023-05-14T04:03:11.874Z,18.73
2023-05-14T04:05:38.742Z,18.85
2023-05-14T04:08:05.868Z,19.85
2023-05-14T04:10:32.643Z,21.08
2023-05-14T04:12:59.366Z,24.05
2023-05-14T04:15:26.194Z,24.67
2023-05-14T04:17:52.959Z,24.08
2023-05-14T04:20:19.752Z,23.00
2023-05-14T04:22:46.497Z,22.17
2023-05-14T04:25:13.342Z,21.30
2023-05-14T04:27:40.129Z,20.92
2023-05-14T04:30:08.439Z,22.27
2023-05-14T04:32:35.450Z,20.95
2023-05-14T04:35:02.457Z,21.80
2023-05-14T04:37:29.148Z,22.15
2023-05-14T04:39:55.834Z,22.60
2023-05-14T04:42:22.555Z,22.98
2023-05-14T04:44:49.228Z,23.77
2023-05-14T04:47:16.129Z,21.20
2023-05-14T04:49:43.318Z,22.75
2023-05-14T04:52:10.067Z,22.92
2023-05-14T04:54:36.791Z,21.83
2023-05-14T04:57:03.614Z,23.33
2023-05-14T04:59:30.942Z,22.10
2023-05-14T05:01:57.833Z,21.80
2023-05-14T05:04:24.754Z,22.98
2023-05-14T05:06:51.489Z,21.33
2023-05-14T05:09:18.724Z,21.02
2023-05-14T05:11:45.410Z,23.95
2023-05-14T05:14:12.073Z,25.23
2023-05-14T05:16:38.768Z,22.38
2023-05-14T05:19:05.537Z,20.38
2023-05-14T05:21:32.274Z,20.15
2023-05-14T05:23:58.935Z,22.15
2023-05-14T05:26:26.869Z,22.17
2023-05-14T05:28:53.692Z,22.42
2023-05-14T05:31:20.587Z,22.63
2023-05-14T05:33:47.649Z,21.67
2023-05-14T05:36:14.402Z,21.05
2023-05-14T05:38:41.500Z,21.38
2023-05-14T05:41:08.355Z,20.92
2023-05-14T05:43:35.044Z,20.52
2023-05-14T05:46:01.831Z,21.48
2023-05-14T05:48:28.544Z,21.10
2023-05-14T05:50:55.220Z,20.92
2023-05-14T05:53:21.949Z,20.88
2023-05-14T05:55:48.606Z,20.05
2023-05-14T05:58:17.280Z,19.73
2023-05-14T06:00:44.163Z,19.98
2023-05-14T06:03:11.474Z,21.38
2023-05-14T06:05:38.419Z,19.63
2023-05-14T06:08:05.675Z,19.30
2023-05-14T06:10:32.521Z,20.67
2023-05-14T06:12:59.181Z,19.27
2023-05-14T06:15:25.945Z,21.60
2023-05-14T06:17:52.676Z,19.88
2023-05-14T06:20:19.521Z,20.42
2023-05-14T06:22:46.201Z,19.05
2023-05-14T06:25:12.933Z,18.60
2023-05-14T06:27:39.601Z,18.65
2023-05-14T06:30:07.167Z,19.08
2023-05-14T06:32:33.872Z,18.38
2023-05-14T06:35:00.697Z,20.02
2023-05-14T06:37:27.462Z,19.88
2023-05-14T06:39:55.251Z,19.00
2023-05-14T06:42:23.875Z,20.13
2023-05-14T06:44:50.578Z,20.83
2023-05-14T06:47:17.244Z,20.95
2023-05-14T06:49:43.936Z,20.88
2023-05-14T06:52:10.639Z,21.27
2023-05-14T06:54:37.446Z,20.55
2023-05-14T06:57:04.383Z,22.08
2023-05-14T06:59:31.095Z,22.45
2023-05-14T07:01:57.879Z,19.98
2023-05-14T07:04:24.726Z,19.98
2023-05-14T07:06:51.566Z,21.23
2023-05-14T07:09:18.696Z,22.35
2023-05-14T07:11:45.650Z,20.33
2023-05-14T07:14:12.634Z,20.40
2023-05-14T07:16:40.183Z,21.60
2023-05-14T07:19:07.149Z,21.73
2023-05-14T07:21:34.959Z,20.85
2023-05-14T07:24:02.032Z,19.23
2023-05-14T07:26:28.759Z,20.08
2023-05-14T07:28:56.653Z,20.70
2023-05-14T07:31:23.508Z,20.35
2023-05-14T07:33:50.349Z,22.30
2023-05-14T07:36:17.098Z,20.42
2023-05-14T07:38:43.798Z,20.67
2023-05-14T07:41:12.200Z,17.50
2023-05-14T07:43:40.461Z,17.70
2023-05-14T07:46:07.256Z,17.90
2023-05-14T07:48:34.138Z,18.77
2023-05-14T07:51:00.998Z,19.75
2023-05-14T07:53:27.764Z,18.92
2023-05-14T07:55:54.782Z,18.55
2023-05-14T07:58:21.597Z,18.55
2023-05-14T08:00:48.256Z,17.58
2023-05-14T08:03:15.153Z,19.73
2023-05-14T08:05:41.934Z,19.45
2023-05-14T08:08:09.056Z,17.88
2023-05-14T08:10:35.899Z,18.08
2023-05-14T08:13:02.993Z,17.27
2023-05-14T08:15:29.734Z,17.25
2023-05-14T08:17:56.734Z,17.58
2023-05-14T08:20:24.152Z,16.83
2023-05-14T08:22:51.171Z,16.33
2023-05-14T08:25:17.954Z,16.92
2023-05-14T08:27:44.720Z,17.27
2023-05-14T08:30:11.819Z,16.13
2023-05-14T08:32:39.422Z,17.30
2023-05-14T08:35:06.800Z,16.02
2023-05-14T08:37:33.607Z,14.63
2023-05-14T08:40:00.379Z,16.02
2023-05-14T08:42:27.116Z,16.70
2023-05-14T08:44:57.919Z,15.18
2023-05-14T08:47:24.726Z,16.25
2023-05-14T08:50:02.867Z,15.50
2023-05-14T08:52:29.813Z,17.30
2023-05-14T08:54:56.584Z,15.73
2023-05-14T08:57:24.899Z,17.10
2023-05-14T08:59:52.170Z,16.70
2023-05-14T09:02:20.736Z,18.08
2023-05-14T09:04:47.796Z,16.52
2023-05-14T09:07:14.460Z,15.77
2023-05-14T09:09:41.437Z,16.92
2023-05-14T09:12:08.557Z,18.95
2023-05-14T09:14:37.184Z,17.33
2023-05-14T09:17:04.683Z,17.27
2023-05-14T09:19:31.506Z,17.23
2023-05-14T09:22:01.456Z,17.08
2023-05-14T09:24:31.059Z,18.25
2023-05-14T09:26:58.136Z,17.50
2023-05-14T09:29:26.080Z,17.45
2023-05-14T09:31:53.001Z,18.10
2023-05-14T09:34:30.633Z,17.33
2023-05-14T09:36:58.313Z,16.80
2023-05-14T09:39:25.494Z,17.52
2023-05-14T09:41:52.416Z,17.50
2023-05-14T09:44:19.794Z,16.17
2023-05-14T09:46:46.820Z,17.25
2023-05-14T09:49:13.583Z,16.73
2023-05-14T09:51:40.399Z,17.55
2023-05-14T09:54:07.336Z,18.00
2023-05-14T09:56:34.358Z,16.88
2023-05-14T09:59:01.191Z,17.42
2023-05-14T10:01:29.056Z,17.88
2023-05-14T10:03:55.984Z,16.90
2023-05-14T10:06:27.796Z,16.00
2023-05-14T10:08:56.414Z,14.32
2023-05-14T10:11:25.915Z,16.52
2023-05-14T10:13:57.200Z,15.82
2023-05-14T10:16:31.439Z,15.57
2023-05-14T10:19:01.498Z,15.55
2023-05-14T10:21:28.593Z,15.13
2023-05-14T10:23:55.352Z,14.73
2023-05-14T10:26:24.030Z,15.30
2023-05-14T10:28:50.991Z,13.75
2023-05-14T10:31:17.739Z,15.30
2023-05-14T10:33:50.205Z,15.60
2023-05-14T10:36:20.052Z,15.30
2023-05-14T10:38:47.272Z,14.43
2023-05-14T10:41:18.044Z,15.02
2023-05-14T10:43:45.171Z,15.23
2023-05-14T10:46:19.582Z,14.36
2023-05-14T10:48:46.314Z,16.52
2023-05-14T10:51:13.388Z,15.32
2023-05-14T10:53:41.576Z,13.77
2023-05-14T10:56:10.472Z,14.18
2023-05-14T10:58:38.272Z,15.00
2023-05-14T11:01:06.699Z,14.98
2023-05-14T11:03:38.660Z,15.25
2023-05-14T11:06:05.503Z,16.08
2023-05-14T11:08:32.318Z,14.73
2023-05-14T11:10:59.025Z,14.75
2023-05-14T11:13:26.746Z,15.15
2023-05-14T11:15:53.650Z,15.18
2023-05-14T11:18:31.008Z,16.95
2023-05-14T11:21:01.216Z,14.25
2023-05-14T11:23:28.160Z,13.27
2023-05-14T11:25:55.874Z,13.70
2023-05-14T11:28:23.427Z,15.55
2023-05-14T11:30:53.807Z,15.05
2023-05-14T11:33:20.954Z,14.95
2023-05-14T11:35:48.463Z,14.68
2023-05-14T11:38:19.563Z,15.00
2023-05-14T11:40:56.036Z,13.55
2023-05-14T11:43:23.808Z,13.73
2023-05-14T11:45:52.249Z,12.40
2023-05-14T11:48:19.816Z,13.15
2023-05-14T11:50:51.002Z,13.15
2023-05-14T11:53:29.337Z,12.80
2023-05-14T11:55:57.795Z,14.60
2023-05-14T11:58:24.913Z,14.23
2023-05-14T12:00:52.368Z,13.20
2023-05-14T12:03:26.032Z,12.38
2023-05-14T12:06:00.375Z,13.23
2023-05-14T12:08:31.382Z,12.73
2023-05-14T12:11:01.102Z,11.73
2023-05-14T12:13:28.440Z,12.13
2023-05-14T12:15:56.982Z,11.95
2023-05-14T12:18:28.272Z,12.30
2023-05-14T12:20:55.236Z,12.52
2023-05-14T12:23:28.977Z,10.65
2023-05-14T12:25:55.918Z,10.73
2023-05-14T12:28:23.367Z,9.30
2023-05-14T12:30:56.398Z,8.18
2023-05-14T12:33:26.618Z,10.77
2023-05-14T12:35:53.940Z,10.25
2023-05-14T12:38:20.843Z,11.30
2023-05-14T12:40:47.691Z,11.30
2023-05-14T12:43:14.505Z,10.63
2023-05-14T12:45:41.267Z,11.43
2023-05-14T12:48:08.073Z,12.05
2023-05-14T12:50:34.779Z,10.85
2023-05-14T12:53:01.561Z,10.07
2023-05-14T12:55:28.277Z,10.35
2023-05-14T12:57:55.032Z,9.43
2023-05-14T13:00:22.018Z,10.65
2023-05-14T13:02:48.986Z,11.55
2023-05-14T13:05:15.913Z,9.60
2023-05-14T13:07:42.756Z,9.60
2023-05-14T13:10:10.071Z,10.65
2023-05-14T13:12:36.926Z,10.88
2023-05-14T13:15:03.938Z,8.57
2023-05-14T13:17:30.699Z,7.25
2023-05-14T13:19:57.528Z,7.95
2023-05-14T13:22:24.352Z,7.75
2023-05-14T13:24:51.127Z,8.18
2023-05-14T13:27:17.850Z,6.60
2023-05-14T13:29:44.577Z,6.82
2023-05-14T13:32:11.374Z,7.78
2023-05-14T13:34:38.131Z,8.30
2023-05-14T13:37:05.381Z,8.65
2023-05-14T13:39:32.213Z,8.50
2023-05-14T13:41:58.912Z,7.75
2023-05-14T13:44:25.767Z,8.70
2023-05-14T13:46:53.403Z,6.75
2023-05-14T13:49:20.421Z,6.55
2023-05-14T13:51:47.146Z,8.98
2023-05-14T13:54:13.828Z,7.72
2023-05-14T13:56:40.535Z,8.05
2023-05-14T13:59:07.299Z,7.93
2023-05-14T14:01:34.225Z,7.57
2023-05-14T14:04:01.011Z,9.23
2023-05-14T14:06:27.733Z,10.73
2023-05-14T14:08:54.459Z,9.05
2023-05-14T14:11:21.857Z,9.52
2023-05-14T14:13:48.786Z,8.27
2023-05-14T14:16:16.266Z,8.88
2023-05-14T14:18:43.778Z,10.00
2023-05-14T14:21:10.720Z,9.70
2023-05-14T14:23:37.448Z,9.40
2023-05-14T14:26:04.267Z,9.15
2023-05-14T14:28:31.366Z,7.55
2023-05-14T14:30:58.362Z,8.82
2023-05-14T14:33:25.451Z,8.18
2023-05-14T14:35:52.931Z,6.07
2023-05-14T14:38:19.929Z,6.45
2023-05-14T14:40:46.871Z,6.32
2023-05-14T14:43:13.549Z,5.68
2023-05-14T14:45:40.452Z,4.65
2023-05-14T14:48:27.260Z,4.85
2023-05-14T14:50:54.606Z,4.35
2023-05-14T14:53:24.427Z,4.05
2023-05-14T14:55:51.373Z,5.30
2023-05-14T14:58:18.814Z,4.40
2023-05-14T15:00:45.773Z,5.70
2023-05-14T15:03:12.864Z,7.43
2023-05-14T15:05:39.722Z,6.53
2023-05-14T15:08:06.535Z,6.07
2023-05-14T15:10:37.618Z,7.22
2023-05-14T15:13:05.259Z,7.30
2023-05-14T15:15:35.460Z,6.03
2023-05-14T15:18:02.710Z,6.50
2023-05-14T15:20:29.462Z,6.88
2023-05-14T15:22:56.292Z,8.23
2023-05-14T15:25:23.692Z,7.03
2023-05-14T15:27:50.915Z,7.15
2023-05-14T15:30:17.676Z,7.38
2023-05-14T15:32:45.046Z,6.50
2023-05-14T15:35:11.938Z,6.57
2023-05-14T15:37:43.367Z,6.60
2023-05-14T15:40:11.003Z,6.32
2023-05-14T15:42:42.532Z,5.95
2023-05-14T15:45:10.849Z,6.93
2023-05-14T15:47:37.950Z,6.95
2023-05-14T15:50:05.437Z,6.97
2023-05-14T15:52:32.204Z,7.18
2023-05-14T15:54:59.580Z,7.22
2023-05-14T15:57:26.488Z,6.80
2023-05-14T15:59:54.652Z,6.75
2023-05-14T16:02:21.389Z,7.80
2023-05-14T16:04:49.563Z,6.70
2023-05-14T16:07:17.192Z,6.40
2023-05-14T16:09:44.208Z,5.72
2023-05-14T16:12:11.690Z,5.32
2023-05-14T16:14:41.277Z,6.32
2023-05-14T16:17:08.960Z,5.50
2023-05-14T16:19:35.718Z,6.95
2023-05-14T16:22:02.512Z,7.03
2023-05-14T16:24:29.304Z,6.22
2023-05-14T16:26:56.125Z,6.07
2023-05-14T16:29:23.032Z,8.20
2023-05-14T16:31:49.914Z,7.65
2023-05-14T16:34:16.601Z,6.57
2023-05-14T16:36:43.469Z,6.82
2023-05-14T16:39:11.435Z,6.65
2023-05-14T16:41:38.395Z,6.32
2023-05-14T16:44:05.496Z,6.65
2023-05-14T16:46:33.107Z,6.68
2023-05-14T16:49:00.478Z,6.07
2023-05-14T16:51:27.224Z,5.25
2023-05-14T16:53:55.464Z,5.18
2023-05-14T16:56:29.967Z,6.07
2023-05-14T16:58:56.679Z,6.45
2023-05-14T17:01:23.540Z,6.80
2023-05-14T17:03:50.306Z,5.70
2023-05-14T17:06:17.006Z,5.95
2023-05-14T17:08:43.676Z,6.13
2023-05-14T17:11:10.438Z,6.25
2023-05-14T17:13:37.245Z,6.00
2023-05-14T17:16:04.342Z,6.25
2023-05-14T17:18:32.648Z,5.50
2023-05-14T17:20:59.848Z,5.40
2023-05-14T17:23:26.619Z,6.72
2023-05-14T17:25:53.407Z,5.97
2023-05-14T17:28:20.584Z,5.50
2023-05-14T17:30:47.291Z,5.70
2023-05-14T17:33:14.166Z,6.22
2023-05-14T17:35:43.742Z,6.15
2023-05-14T17:38:10.499Z,6.70
2023-05-14T17:40:37.441Z,6.82
2023-05-14T17:43:04.289Z,6.38
2023-05-14T17:45:39.355Z,5.18
2023-05-14T17:48:13.383Z,5.30
2023-05-14T17:50:40.479Z,5.10
2023-05-14T17:53:07.272Z,5.05
2023-05-14T17:55:39.852Z,6.78
2023-05-14T17:58:06.574Z,5.53
2023-05-14T18:00:33.354Z,5.00
2023-05-14T18:03:00.356Z,5.80
2023-05-14T18:05:29.041Z,5.82
2023-05-14T18:07:57.995Z,6.05
2023-05-14T18:10:25.472Z,4.80
2023-05-14T18:12:52.256Z,4.65
2023-05-14T18:15:20.418Z,5.25
2023-05-14T18:17:47.269Z,5.47
2023-05-14T18:20:14.065Z,5.72
2023-05-14T18:22:40.836Z,7.05
2023-05-14T18:25:10.731Z,8.23
2023-05-14T18:27:42.467Z,8.98
2023-05-14T18:30:11.088Z,10.73
2023-05-14T18:32:37.879Z,10.75
2023-05-14T18:35:07.743Z,13.05
2023-05-14T18:37:35.218Z,14.75
2023-05-14T18:40:02.980Z,15.25
2023-05-14T18:42:29.805Z,15.27
2023-05-14T18:44:56.627Z,16.20
2023-05-14T18:47:23.367Z,16.98
2023-05-14T18:49:54.768Z,17.25
2023-05-14T18:52:26.192Z,18.02
2023-05-14T18:54:53.810Z,18.23
2023-05-14T18:57:21.125Z,19.65
2023-05-14T18:59:47.874Z,20.20
2023-05-14T19:02:14.734Z,22.90
2023-05-14T19:04:51.658Z,25.35
2023-05-14T19:07:19.447Z,22.30
2023-05-14T19:09:46.506Z,24.67
2023-05-14T19:12:13.638Z,23.98
2023-05-14T19:14:40.446Z,24.65
2023-05-14T19:17:07.438Z,22.95
2023-05-14T19:19:34.168Z,24.05
2023-05-14T19:22:00.903Z,24.38
2023-05-14T19:24:27.658Z,23.73
2023-05-14T19:26:54.350Z,25.25
2023-05-14T19:29:21.051Z,23.02
2023-05-14T19:31:47.780Z,23.88
2023-05-14T19:34:14.659Z,22.90
2023-05-14T19:36:41.715Z,24.90
2023-05-14T19:39:08.423Z,24.95
2023-05-14T19:41:35.187Z,23.85
2023-05-14T19:44:01.973Z,24.13
2023-05-14T19:46:29.055Z,24.73
2023-05-14T19:48:55.938Z,22.88
2023-05-14T19:51:22.675Z,23.02
2023-05-14T19:53:49.616Z,24.27
2023-05-14T19:56:16.560Z,23.67
2023-05-14T19:58:44.303Z,22.50
2023-05-14T20:01:12.010Z,23.05
2023-05-14T20:03:39.041Z,21.63
2023-05-14T20:06:07.129Z,23.98
2023-05-14T20:08:33.913Z,19.95
2023-05-14T20:11:00.921Z,18.08
2023-05-14T20:13:27.762Z,19.48
2023-05-14T20:15:55.180Z,20.15
2023-05-14T20:18:22.121Z,17.80
2023-05-14T20:20:49.103Z,17.27
2023-05-14T20:23:15.965Z,18.17
2023-05-14T20:25:43.154Z,15.57
2023-05-14T20:28:10.440Z,16.92
2023-05-14T20:30:37.348Z,17.70
2023-05-14T20:33:04.143Z,17.58
2023-05-14T20:35:31.248Z,18.42
2023-05-14T20:37:58.600Z,16.25
2023-05-14T20:40:28.458Z,16.40
2023-05-14T20:42:55.418Z,16.60
2023-05-14T20:45:22.298Z,16.70
2023-05-14T20:47:49.169Z,16.33
2023-05-14T20:50:16.349Z,17.02
2023-05-14T20:52:43.285Z,15.05
2023-05-14T20:55:10.337Z,14.65
2023-05-14T20:57:37.384Z,13.93
2023-05-14T21:00:08.036Z,13.65
2023-05-14T21:02:35.017Z,8.63
2023-05-14T21:05:01.912Z,6.68
2023-05-14T21:07:29.063Z,5.53
2023-05-14T21:09:55.918Z,3.92
2023-05-14T21:12:22.679Z,3.30
2023-05-14T21:14:49.442Z,2.78
2023-05-14T21:17:16.250Z,2.85
2023-05-14T21:19:43.286Z,2.90
2023-05-14T21:22:09.974Z,1.75
2023-05-14T21:24:36.877Z,1.70
2023-05-14T21:27:03.857Z,1.27
2023-05-14T21:29:30.643Z,2.15
2023-05-14T21:31:57.409Z,1.27
2023-05-14T21:34:24.209Z,1.60
2023-05-14T21:36:51.003Z,1.63
2023-05-14T21:39:17.768Z,1.50
2023-05-14T21:41:44.531Z,1.45
2023-05-14T21:44:11.300Z,1.30
2023-05-14T21:46:43.575Z,1.17
2023-05-14T21:49:10.238Z,1.08
2023-05-14T21:51:36.983Z,1.70
2023-05-14T21:54:03.783Z,1.70
2023-05-14T21:56:30.505Z,1.48
2023-05-14T21:58:57.382Z,1.27
2023-05-14T22:01:24.144Z,1.90
2023-05-14T22:03:50.888Z,1.15
2023-05-14T22:06:17.626Z,1.65
2023-05-14T22:08:44.315Z,1.30
2023-05-14T22:11:11.113Z,1.83
2023-05-14T22:13:40.937Z,1.42
2023-05-14T22:16:12.763Z,1.38
2023-05-14T22:18:40.497Z,1.52
2023-05-14T22:21:07.233Z,1.20
2023-05-14T22:23:34.237Z,1.40
2023-05-14T22:26:01.151Z,1.40
2023-05-14T22:28:27.976Z,1.38
2023-05-14T22:30:56.442Z,3.38
2023-05-14T22:33:23.349Z,1.40
2023-05-14T22:35:50.552Z,1.02
2023-05-14T22:38:17.442Z,1.30
2023-05-14T22:40:44.126Z,1.02
2023-05-14T22:43:10.875Z,0.85
2023-05-14T22:45:37.716Z,0.98
2023-05-14T22:48:04.631Z,1.00
2023-05-14T22:50:31.466Z,1.30
2023-05-14T22:52:58.240Z,1.42
2023-05-14T22:55:25.262Z,1.30
2023-05-14T22:57:52.161Z,1.10
2023-05-14T23:00:19.311Z,1.17
2023-05-14T23:02:46.235Z,1.65
2023-05-14T23:05:13.093Z,1.25
2023-05-14T23:07:39.824Z,1.38
2023-05-14T23:10:07.006Z,1.10
2023-05-14T23:12:33.772Z,1.20
2023-05-14T23:15:00.537Z,1.33
2023-05-14T23:17:27.385Z,1.45
2023-05-14T23:19:54.332Z,1.10
2023-05-14T23:22:21.095Z,1.48
2023-05-14T23:24:47.802Z,1.42
2023-05-14T23:27:14.476Z,1.70
2023-05-14T23:29:41.208Z,1.42
2023-05-14T23:32:08.495Z,1.40
2023-05-14T23:34:35.416Z,1.70
2023-05-14T23:37:02.184Z,1.15
2023-05-14T23:39:28.877Z,1.50
2023-05-14T23:41:55.597Z,1.50
2023-05-14T23:44:22.585Z,1.50
2023-05-14T23:46:49.415Z,1.40
2023-05-14T23:49:16.090Z,1.50
2023-05-14T23:51:42.876Z,1.20
2023-05-14T23:54:09.622Z,2.05
2023-05-14T23:56:36.299Z,1.30
2023-05-14T23:59:03.626Z,1.40
